sensor_id;sensor_type;location;lat;lon;timestamp;temperature;humidity
9820;DHT22;4949;48.482;9.206;2023-01-15T00:01:36;12.70;60.50
9820;DHT22;4949;48.482;9.206;2023-01-15T00:06:41;12.80;60.00
9820;DHT22;4949;48.482;9.206;2023-01-15T00:11:44;12.80;60.50
9820;DHT22;4949;48.482;9.206;2023-01-15T00:16:50;12.90;60.20
9820;DHT22;4949;48.482;9.206;2023-01-15T00:21:51;12.80;60.30
9820;DHT22;4949;48.482;9.206;2023-01-15T00:26:55;12.80;60.60
9820;DHT22;4949;48.482;9.206;2023-01-15T00:32:15;12.80;60.50
9820;DHT22;4949;48.482;9.206;2023-01-15T00:37:15;12.90;60.50
9820;DHT22;4949;48.482;9.206;2023-01-15T00:42:16;13.00;60.00
9820;DHT22;4949;48.482;9.206;2023-01-15T00:47:19;13.00;60.20
9820;DHT22;4949;48.482;9.206;2023-01-15T00:52:20;13.00;60.40
9820;DHT22;4949;48.482;9.206;2023-01-15T00:57:21;13.00;60.50
9820;DHT22;4949;48.482;9.206;2023-01-15T01:02:24;13.00;60.20
9820;DHT22;4949;48.482;9.206;2023-01-15T01:07:25;13.10;60.70
9820;DHT22;4949;48.482;9.206;2023-01-15T01:12:26;13.10;62.30
9820;DHT22;4949;48.482;9.206;2023-01-15T01:17:29;13.00;62.20
9820;DHT22;4949;48.482;9.206;2023-01-15T01:22:30;12.90;62.70
9820;DHT22;4949;48.482;9.206;2023-01-15T01:27:32;13.00;63.10
9820;DHT22;4949;48.482;9.206;2023-01-15T01:32:38;12.90;64.00
9820;DHT22;4949;48.482;9.206;2023-01-15T01:37:48;12.90;64.60
9820;DHT22;4949;48.482;9.206;2023-01-15T01:42:54;12.80;64.30
9820;DHT22;4949;48.482;9.206;2023-01-15T01:48:11;12.80;64.10
9820;DHT22;4949;48.482;9.206;2023-01-15T01:53:22;12.90;64.40
9820;DHT22;4949;48.482;9.206;2023-01-15T01:58:29;12.80;64.10
9820;DHT22;4949;48.482;9.206;2023-01-15T02:03:38;12.90;63.80
9820;DHT22;4949;48.482;9.206;2023-01-15T02:08:41;12.90;63.60
9820;DHT22;4949;48.482;9.206;2023-01-15T02:14:05;12.80;64.30
9820;DHT22;4949;48.482;9.206;2023-01-15T02:19:35;12.80;64.30
9820;DHT22;4949;48.482;9.206;2023-01-15T02:25:06;13.00;64.30
9820;DHT22;4949;48.482;9.206;2023-01-15T02:30:34;12.80;64.70
9820;DHT22;4949;48.482;9.206;2023-01-15T02:35:47;12.90;64.60
9820;DHT22;4949;48.482;9.206;2023-01-15T02:40:55;13.00;65.10
9820;DHT22;4949;48.482;9.206;2023-01-15T02:45:59;13.00;65.90
9820;DHT22;4949;48.482;9.206;2023-01-15T02:51:08;13.10;65.90
9820;DHT22;4949;48.482;9.206;2023-01-15T02:56:14;13.00;66.40
9820;DHT22;4949;48.482;9.206;2023-01-15T03:01:24;12.90;66.10
9820;DHT22;4949;48.482;9.206;2023-01-15T03:06:40;12.90;66.20
9820;DHT22;4949;48.482;9.206;2023-01-15T03:12:19;12.90;67.00
9820;DHT22;4949;48.482;9.206;2023-01-15T03:17:31;12.90;66.80
9820;DHT22;4949;48.482;9.206;2023-01-15T03:22:40;12.90;66.70
9820;DHT22;4949;48.482;9.206;2023-01-15T03:27:44;13.20;66.40
9820;DHT22;4949;48.482;9.206;2023-01-15T03:32:45;12.90;66.70
9820;DHT22;4949;48.482;9.206;2023-01-15T03:37:46;12.90;67.40
9820;DHT22;4949;48.482;9.206;2023-01-15T03:42:54;12.80;67.20
9820;DHT22;4949;48.482;9.206;2023-01-15T03:49:29;12.90;67.70
9820;DHT22;4949;48.482;9.206;2023-01-15T03:54:07;12.70;67.90
9820;DHT22;4949;48.482;9.206;2023-01-15T03:59:16;12.70;69.20
9820;DHT22;4949;48.482;9.206;2023-01-15T04:04:19;12.70;70.70
9820;DHT22;4949;48.482;9.206;2023-01-15T04:09:23;12.50;71.60
9820;DHT22;4949;48.482;9.206;2023-01-15T04:14:24;12.40;72.00
9820;DHT22;4949;48.482;9.206;2023-01-15T04:19:24;12.60;71.90
9820;DHT22;4949;48.482;9.206;2023-01-15T04:24:25;12.30;71.60
9820;DHT22;4949;48.482;9.206;2023-01-15T04:29:28;12.30;71.70
9820;DHT22;4949;48.482;9.206;2023-01-15T04:34:29;12.30;70.70
9820;DHT22;4949;48.482;9.206;2023-01-15T04:39:30;12.40;70.00
9820;DHT22;4949;48.482;9.206;2023-01-15T04:44:37;12.40;69.90
9820;DHT22;4949;48.482;9.206;2023-01-15T04:49:38;12.60;68.80
9820;DHT22;4949;48.482;9.206;2023-01-15T04:54:39;12.50;68.20
9820;DHT22;4949;48.482;9.206;2023-01-15T04:59:39;12.60;67.60
9820;DHT22;4949;48.482;9.206;2023-01-15T05:04:40;12.60;68.00
9820;DHT22;4949;48.482;9.206;2023-01-15T05:09:43;12.60;68.20
9820;DHT22;4949;48.482;9.206;2023-01-15T05:14:44;12.50;68.20
9820;DHT22;4949;48.482;9.206;2023-01-15T05:19:44;12.40;69.20
9820;DHT22;4949;48.482;9.206;2023-01-15T05:24:45;12.20;71.30
9820;DHT22;4949;48.482;9.206;2023-01-15T05:29:46;12.20;71.30
9820;DHT22;4949;48.482;9.206;2023-01-15T05:34:49;12.40;71.20
9820;DHT22;4949;48.482;9.206;2023-01-15T05:39:49;12.30;70.60
9820;DHT22;4949;48.482;9.206;2023-01-15T05:44:55;12.30;70.50
9820;DHT22;4949;48.482;9.206;2023-01-15T05:50:01;12.30;71.50
9820;DHT22;4949;48.482;9.206;2023-01-15T05:55:04;12.40;73.60
9820;DHT22;4949;48.482;9.206;2023-01-15T06:00:06;12.00;74.40
9820;DHT22;4949;48.482;9.206;2023-01-15T06:05:10;11.90;74.90
9820;DHT22;4949;48.482;9.206;2023-01-15T06:10:10;11.90;74.90
9820;DHT22;4949;48.482;9.206;2023-01-15T06:15:14;11.90;74.80
9820;DHT22;4949;48.482;9.206;2023-01-15T06:20:15;11.90;75.60
9820;DHT22;4949;48.482;9.206;2023-01-15T06:25:18;11.80;75.50
9820;DHT22;4949;48.482;9.206;2023-01-15T06:30:24;11.80;74.80
9820;DHT22;4949;48.482;9.206;2023-01-15T06:35:25;11.80;75.40
9820;DHT22;4949;48.482;9.206;2023-01-15T06:40:26;12.00;76.40
9820;DHT22;4949;48.482;9.206;2023-01-15T06:45:47;11.50;76.70
9820;DHT22;4949;48.482;9.206;2023-01-15T06:51:06;11.10;76.90
9820;DHT22;4949;48.482;9.206;2023-01-15T06:56:07;10.70;78.50
9820;DHT22;4949;48.482;9.206;2023-01-15T07:01:13;10.40;78.80
9820;DHT22;4949;48.482;9.206;2023-01-15T07:06:17;10.10;79.30
9820;DHT22;4949;48.482;9.206;2023-01-15T07:11:20;10.00;79.80
9820;DHT22;4949;48.482;9.206;2023-01-15T07:16:23;9.80;81.20
9820;DHT22;4949;48.482;9.206;2023-01-15T07:21:32;9.90;81.50
9820;DHT22;4949;48.482;9.206;2023-01-15T07:26:33;9.90;81.60
9820;DHT22;4949;48.482;9.206;2023-01-15T07:31:34;10.00;80.00
9820;DHT22;4949;48.482;9.206;2023-01-15T07:36:36;9.70;80.00
9820;DHT22;4949;48.482;9.206;2023-01-15T07:41:37;9.40;79.10
9820;DHT22;4949;48.482;9.206;2023-01-15T07:46:57;9.30;80.00
9820;DHT22;4949;48.482;9.206;2023-01-15T07:52:18;9.30;79.70
9820;DHT22;4949;48.482;9.206;2023-01-15T07:57:23;9.40;80.10
9820;DHT22;4949;48.482;9.206;2023-01-15T08:02:24;9.30;79.00
9820;DHT22;4949;48.482;9.206;2023-01-15T08:07:25;9.30;79.20
9820;DHT22;4949;48.482;9.206;2023-01-15T08:12:26;9.40;78.70
9820;DHT22;4949;48.482;9.206;2023-01-15T08:17:49;9.20;79.40
9820;DHT22;4949;48.482;9.206;2023-01-15T08:22:55;9.20;79.70
9820;DHT22;4949;48.482;9.206;2023-01-15T08:27:59;9.10;78.70
9820;DHT22;4949;48.482;9.206;2023-01-15T08:33:01;9.00;78.20
9820;DHT22;4949;48.482;9.206;2023-01-15T08:38:05;8.80;78.20
9820;DHT22;4949;48.482;9.206;2023-01-15T08:43:06;8.70;78.80
9820;DHT22;4949;48.482;9.206;2023-01-15T08:48:07;8.60;78.80
9820;DHT22;4949;48.482;9.206;2023-01-15T08:53:10;8.50;76.40
9820;DHT22;4949;48.482;9.206;2023-01-15T08:58:11;8.50;76.70
9820;DHT22;4949;48.482;9.206;2023-01-15T09:03:12;8.20;76.30
9820;DHT22;4949;48.482;9.206;2023-01-15T09:08:13;8.10;77.20
9820;DHT22;4949;48.482;9.206;2023-01-15T09:13:13;8.20;76.70
9820;DHT22;4949;48.482;9.206;2023-01-15T09:18:16;8.10;78.10
9820;DHT22;4949;48.482;9.206;2023-01-15T09:23:21;8.20;77.80
9820;DHT22;4949;48.482;9.206;2023-01-15T09:28:22;8.10;78.20
9820;DHT22;4949;48.482;9.206;2023-01-15T09:33:22;7.90;78.20
9820;DHT22;4949;48.482;9.206;2023-01-15T09:38:23;7.80;78.30
9820;DHT22;4949;48.482;9.206;2023-01-15T09:43:39;7.70;77.80
9820;DHT22;4949;48.482;9.206;2023-01-15T10:00:39;7.70;78.30
9820;DHT22;4949;48.482;9.206;2023-01-15T10:11:30;7.60;78.30
9820;DHT22;4949;48.482;9.206;2023-01-15T10:16:53;7.30;78.50
9820;DHT22;4949;48.482;9.206;2023-01-15T10:22:05;7.30;77.70
9820;DHT22;4949;48.482;9.206;2023-01-15T10:27:25;7.30;78.20
9820;DHT22;4949;48.482;9.206;2023-01-15T10:32:49;7.20;78.90
9820;DHT22;4949;48.482;9.206;2023-01-15T10:38:19;7.20;78.30
9820;DHT22;4949;48.482;9.206;2023-01-15T10:43:43;7.00;78.50
9820;DHT22;4949;48.482;9.206;2023-01-15T10:48:56;7.00;78.10
9820;DHT22;4949;48.482;9.206;2023-01-15T10:59:48;7.00;78.40
9820;DHT22;4949;48.482;9.206;2023-01-15T11:04:52;6.80;76.60
9820;DHT22;4949;48.482;9.206;2023-01-15T11:09:53;6.70;77.90
9820;DHT22;4949;48.482;9.206;2023-01-15T11:14:54;6.60;78.10
9820;DHT22;4949;48.482;9.206;2023-01-15T11:25:30;6.60;77.80
9820;DHT22;4949;48.482;9.206;2023-01-15T11:30:36;6.60;78.70
9820;DHT22;4949;48.482;9.206;2023-01-15T11:35:37;6.60;78.00
9820;DHT22;4949;48.482;9.206;2023-01-15T11:40:38;6.50;77.70
9820;DHT22;4949;48.482;9.206;2023-01-15T11:45:49;6.30;78.50
9820;DHT22;4949;48.482;9.206;2023-01-15T11:51:12;6.30;77.90
9820;DHT22;4949;48.482;9.206;2023-01-15T11:56:25;6.40;77.90
9820;DHT22;4949;48.482;9.206;2023-01-15T12:01:32;6.40;78.00
9820;DHT22;4949;48.482;9.206;2023-01-15T12:06:39;6.40;77.50
9820;DHT22;4949;48.482;9.206;2023-01-15T12:17:01;6.00;78.10
9820;DHT22;4949;48.482;9.206;2023-01-15T12:22:55;5.80;75.10
9820;DHT22;4949;48.482;9.206;2023-01-15T12:28:28;5.50;73.80
9820;DHT22;4949;48.482;9.206;2023-01-15T12:34:04;5.40;75.40
9820;DHT22;4949;48.482;9.206;2023-01-15T12:39:20;5.50;75.70
9820;DHT22;4949;48.482;9.206;2023-01-15T12:44:54;5.50;76.00
9820;DHT22;4949;48.482;9.206;2023-01-15T12:50:23;5.60;76.20
9820;DHT22;4949;48.482;9.206;2023-01-15T12:55:32;5.60;76.30
9820;DHT22;4949;48.482;9.206;2023-01-15T13:00:40;5.70;76.60
9820;DHT22;4949;48.482;9.206;2023-01-15T13:05:57;5.70;75.70
9820;DHT22;4949;48.482;9.206;2023-01-15T13:11:05;5.80;76.30
9820;DHT22;4949;48.482;9.206;2023-01-15T13:16:11;5.80;77.00
9820;DHT22;4949;48.482;9.206;2023-01-15T13:21:19;5.80;77.70
9820;DHT22;4949;48.482;9.206;2023-01-15T13:42:19;5.80;74.60
9820;DHT22;4949;48.482;9.206;2023-01-15T13:47:36;5.70;74.90
9820;DHT22;4949;48.482;9.206;2023-01-15T13:52:44;5.80;73.70
9820;DHT22;4949;48.482;9.206;2023-01-15T13:57:46;5.80;73.60
9820;DHT22;4949;48.482;9.206;2023-01-15T14:02:52;5.70;73.90
9820;DHT22;4949;48.482;9.206;2023-01-15T14:07:58;5.70;74.20
9820;DHT22;4949;48.482;9.206;2023-01-15T14:35:42;6.40;69.30
9820;DHT22;4949;48.482;9.206;2023-01-15T14:41:01;6.60;69.30
9820;DHT22;4949;48.482;9.206;2023-01-15T14:46:28;6.90;68.10
9820;DHT22;4949;48.482;9.206;2023-01-15T14:51:45;6.80;67.00
9820;DHT22;4949;48.482;9.206;2023-01-15T14:56:54;6.90;66.80
9820;DHT22;4949;48.482;9.206;2023-01-15T15:02:00;6.90;65.90
9820;DHT22;4949;48.482;9.206;2023-01-15T15:12:41;6.90;65.90
9820;DHT22;4949;48.482;9.206;2023-01-15T15:34:29;6.40;68.50
9820;DHT22;4949;48.482;9.206;2023-01-15T15:45:05;6.00;68.70
9820;DHT22;4949;48.482;9.206;2023-01-15T15:50:34;5.90;69.20
9820;DHT22;4949;48.482;9.206;2023-01-15T15:55:37;6.00;70.00
9820;DHT22;4949;48.482;9.206;2023-01-15T16:00:43;5.90;69.20
9820;DHT22;4949;48.482;9.206;2023-01-15T16:05:57;5.80;68.70
9820;DHT22;4949;48.482;9.206;2023-01-15T16:11:07;5.90;68.20
9820;DHT22;4949;48.482;9.206;2023-01-15T16:16:13;5.90;67.40
9820;DHT22;4949;48.482;9.206;2023-01-15T16:21:36;5.80;67.40
9820;DHT22;4949;48.482;9.206;2023-01-15T16:26:43;5.70;66.10
9820;DHT22;4949;48.482;9.206;2023-01-15T16:31:45;5.70;66.40
9820;DHT22;4949;48.482;9.206;2023-01-15T16:36:49;5.60;65.90
9820;DHT22;4949;48.482;9.206;2023-01-15T16:41:56;5.60;65.40
9820;DHT22;4949;48.482;9.206;2023-01-15T16:47:00;5.60;64.90
9820;DHT22;4949;48.482;9.206;2023-01-15T16:52:03;5.50;64.30
9820;DHT22;4949;48.482;9.206;2023-01-15T16:57:43;5.40;64.70
9820;DHT22;4949;48.482;9.206;2023-01-15T17:02:45;5.40;63.50
9820;DHT22;4949;48.482;9.206;2023-01-15T17:07:49;5.40;62.90
9820;DHT22;4949;48.482;9.206;2023-01-15T17:12:50;5.50;62.80
9820;DHT22;4949;48.482;9.206;2023-01-15T17:17:57;5.40;61.60
9820;DHT22;4949;48.482;9.206;2023-01-15T17:22:58;5.40;60.80
9820;DHT22;4949;48.482;9.206;2023-01-15T17:28:00;5.30;61.00
9820;DHT22;4949;48.482;9.206;2023-01-15T17:33:04;5.30;61.00
9820;DHT22;4949;48.482;9.206;2023-01-15T17:38:05;5.30;60.00
9820;DHT22;4949;48.482;9.206;2023-01-15T17:43:12;5.40;59.90
9820;DHT22;4949;48.482;9.206;2023-01-15T17:48:16;5.30;60.40
9820;DHT22;4949;48.482;9.206;2023-01-15T17:53:21;5.30;60.90
9820;DHT22;4949;48.482;9.206;2023-01-15T17:58:24;5.30;60.80
9820;DHT22;4949;48.482;9.206;2023-01-15T18:03:49;5.30;61.10
9820;DHT22;4949;48.482;9.206;2023-01-15T18:09:22;5.20;61.10
9820;DHT22;4949;48.482;9.206;2023-01-15T18:14:23;5.20;61.60
9820;DHT22;4949;48.482;9.206;2023-01-15T18:19:23;5.20;61.70
9820;DHT22;4949;48.482;9.206;2023-01-15T18:24:29;5.10;61.60
9820;DHT22;4949;48.482;9.206;2023-01-15T18:29:35;5.10;61.70
9820;DHT22;4949;48.482;9.206;2023-01-15T18:34:39;5.20;61.10
9820;DHT22;4949;48.482;9.206;2023-01-15T18:39:42;5.20;61.40
9820;DHT22;4949;48.482;9.206;2023-01-15T18:44:43;5.20;61.40
9820;DHT22;4949;48.482;9.206;2023-01-15T18:50:04;5.20;61.70
9820;DHT22;4949;48.482;9.206;2023-01-15T18:55:12;5.20;61.50
9820;DHT22;4949;48.482;9.206;2023-01-15T19:00:13;5.10;61.60
9820;DHT22;4949;48.482;9.206;2023-01-15T19:05:17;5.20;61.70
9820;DHT22;4949;48.482;9.206;2023-01-15T19:10:18;5.20;61.40
9820;DHT22;4949;48.482;9.206;2023-01-15T19:15:22;5.20;61.50
9820;DHT22;4949;48.482;9.206;2023-01-15T19:20:43;5.10;61.40
9820;DHT22;4949;48.482;9.206;2023-01-15T19:25:52;5.10;61.50
9820;DHT22;4949;48.482;9.206;2023-01-15T19:30:55;5.10;61.80
9820;DHT22;4949;48.482;9.206;2023-01-15T19:36:15;5.00;61.60
9820;DHT22;4949;48.482;9.206;2023-01-15T19:41:19;5.00;61.60
9820;DHT22;4949;48.482;9.206;2023-01-15T19:46:39;4.90;61.90
9820;DHT22;4949;48.482;9.206;2023-01-15T19:51:58;5.00;61.70
9820;DHT22;4949;48.482;9.206;2023-01-15T19:57:17;4.90;61.90
9820;DHT22;4949;48.482;9.206;2023-01-15T20:02:21;4.90;62.10
9820;DHT22;4949;48.482;9.206;2023-01-15T20:07:22;5.00;61.70
9820;DHT22;4949;48.482;9.206;2023-01-15T20:12:22;5.00;61.70
9820;DHT22;4949;48.482;9.206;2023-01-15T20:17:42;5.00;60.90
9820;DHT22;4949;48.482;9.206;2023-01-15T20:22:53;5.00;60.80
9820;DHT22;4949;48.482;9.206;2023-01-15T20:28:03;5.00;60.10
9820;DHT22;4949;48.482;9.206;2023-01-15T20:33:26;5.00;60.00
9820;DHT22;4949;48.482;9.206;2023-01-15T20:38:34;5.00;60.20
9820;DHT22;4949;48.482;9.206;2023-01-15T20:43:35;5.10;59.40
9820;DHT22;4949;48.482;9.206;2023-01-15T20:49:04;5.10;59.50
9820;DHT22;4949;48.482;9.206;2023-01-15T20:54:27;5.20;59.10
9820;DHT22;4949;48.482;9.206;2023-01-15T20:59:30;5.20;59.30
9820;DHT22;4949;48.482;9.206;2023-01-15T21:04:31;5.20;59.10
9820;DHT22;4949;48.482;9.206;2023-01-15T21:09:32;5.20;58.50
9820;DHT22;4949;48.482;9.206;2023-01-15T21:14:33;5.30;58.30
9820;DHT22;4949;48.482;9.206;2023-01-15T21:19:34;5.20;58.60
9820;DHT22;4949;48.482;9.206;2023-01-15T21:24:35;5.20;58.70
9820;DHT22;4949;48.482;9.206;2023-01-15T21:29:38;5.10;58.90
9820;DHT22;4949;48.482;9.206;2023-01-15T21:34:38;5.00;59.70
9820;DHT22;4949;48.482;9.206;2023-01-15T21:39:41;4.90;60.00
9820;DHT22;4949;48.482;9.206;2023-01-15T21:44:42;4.90;59.60
9820;DHT22;4949;48.482;9.206;2023-01-15T21:49:46;5.00;58.40
9820;DHT22;4949;48.482;9.206;2023-01-15T21:54:47;5.10;58.20
9820;DHT22;4949;48.482;9.206;2023-01-15T21:59:51;5.10;58.40
9820;DHT22;4949;48.482;9.206;2023-01-15T22:04:55;5.00;59.50
9820;DHT22;4949;48.482;9.206;2023-01-15T22:09:56;4.90;59.90
9820;DHT22;4949;48.482;9.206;2023-01-15T22:14:56;4.80;60.30
9820;DHT22;4949;48.482;9.206;2023-01-15T22:19:57;4.70;60.90
9820;DHT22;4949;48.482;9.206;2023-01-15T22:24:58;4.60;60.90
9820;DHT22;4949;48.482;9.206;2023-01-15T22:29:59;4.80;60.80
9820;DHT22;4949;48.482;9.206;2023-01-15T22:35:00;4.70;60.00
9820;DHT22;4949;48.482;9.206;2023-01-15T22:40:00;4.80;59.70
9820;DHT22;4949;48.482;9.206;2023-01-15T22:45:01;5.00;59.30
9820;DHT22;4949;48.482;9.206;2023-01-15T22:50:03;5.00;58.90
9820;DHT22;4949;48.482;9.206;2023-01-15T22:55:05;5.10;58.50
9820;DHT22;4949;48.482;9.206;2023-01-15T23:00:06;5.10;58.40
9820;DHT22;4949;48.482;9.206;2023-01-15T23:05:13;5.10;58.80
9820;DHT22;4949;48.482;9.206;2023-01-15T23:10:16;5.10;58.90
9820;DHT22;4949;48.482;9.206;2023-01-15T23:15:20;5.00;59.10
9820;DHT22;4949;48.482;9.206;2023-01-15T23:20:23;4.90;59.30
9820;DHT22;4949;48.482;9.206;2023-01-15T23:25:24;4.90;59.40
9820;DHT22;4949;48.482;9.206;2023-01-15T23:30:30;5.10;59.40
9820;DHT22;4949;48.482;9.206;2023-01-15T23:35:33;4.90;59.30
9820;DHT22;4949;48.482;9.206;2023-01-15T23:40:33;4.90;59.20
9820;DHT22;4949;48.482;9.206;2023-01-15T23:45:35;4.90;59.50
9820;DHT22;4949;48.482;9.206;2023-01-15T23:51:07;5.10;59.00
9820;DHT22;4949;48.482;9.206;2023-01-15T23:56:08;5.10;59.30
